Time;durP1;ratioP1;P1;durP2;ratioP2;P2;SDS_P1;SDS_P2;PMS_P1;PMS_P2;Temp;Humidity;BMP_temperature;BMP_pressure;BME280_temperature;BME280_humidity;BME280_pressure;Samples;Min_cycle;Max_cycle;Signal;HPM_P1;HPM_P2
2022/04/20 00:00:52;;;;;;;10.77;6.22;;;;;;;4.44;76.35;99619.50;3141145;28;20052;-73
2022/04/20 00:02:24;;;;;;;11.40;6.00;;;;;;;4.45;76.33;99608.31;3139423;28;20571;-73
2022/04/20 00:03:56;;;;;;;8.50;5.50;;;;;;;4.46;76.33;99615.16;3143331;28;20063;-73
2022/04/20 00:05:28;;;;;;;10.30;6.32;;;;;;;4.43;76.13;99604.91;3144933;28;20418;-72
2022/04/20 00:06:59;;;;;;;8.85;5.82;;;;;;;4.49;76.03;99610.75;3146653;28;20113;-72
2022/04/20 00:08:32;;;;;;;12.43;7.10;;;;;;;4.53;76.02;99611.56;3145373;28;20131;-73
2022/04/20 00:10:07;;;;;;;11.43;6.65;;;;;;;4.55;75.87;99618.38;3141602;28;20485;-73
2022/04/20 00:11:38;;;;;;;9.00;5.57;;;;;;;4.55;75.79;99614.94;3146516;28;20087;-73
2022/04/20 00:13:11;;;;;;;10.90;5.68;;;;;;;4.58;75.64;99620.00;3144793;28;20044;-73
2022/04/20 00:14:42;;;;;;;9.85;5.15;;;;;;;4.60;75.58;99613.09;3139498;28;20055;-73
2022/04/20 00:16:15;;;;;;;7.22;4.78;;;;;;;4.59;75.50;99614.00;3138234;28;20045;-73
2022/04/20 00:17:47;;;;;;;7.72;5.10;;;;;;;4.58;75.56;99617.44;3145774;28;20048;-72
2022/04/20 00:19:18;;;;;;;6.45;4.25;;;;;;;4.55;75.40;99613.22;3145916;28;20048;-73
2022/04/20 00:20:49;;;;;;;8.35;4.65;;;;;;;4.53;75.33;99617.56;3146032;28;20064;-73
2022/04/20 00:22:21;;;;;;;9.75;4.80;;;;;;;4.52;75.22;99620.16;3145653;28;20056;-72
2022/04/20 00:23:54;;;;;;;10.90;4.90;;;;;;;4.49;75.15;99613.34;3146188;28;20048;-73
2022/04/20 00:25:27;;;;;;;7.70;4.90;;;;;;;4.41;75.35;99611.81;3145943;28;20135;-73
2022/04/20 00:26:58;;;;;;;6.75;4.50;;;;;;;4.39;75.28;99614.44;3145783;28;20075;-73
2022/04/20 00:28:29;;;;;;;7.78;4.82;;;;;;;4.39;75.27;99614.44;3134434;28;20052;-73
2022/04/20 00:30:02;;;;;;;8.15;4.60;;;;;;;4.36;75.54;99622.25;3143123;28;20505;-73
2022/04/20 00:31:34;;;;;;;7.32;4.30;;;;;;;4.29;75.48;99621.53;3146044;28;20053;-73
2022/04/20 00:33:06;;;;;;;6.55;4.65;;;;;;;4.29;75.58;99626.69;3145241;28;20052;-73
2022/04/20 00:34:38;;;;;;;9.25;5.15;;;;;;;4.27;75.80;99628.47;3134581;28;20052;-73
2022/04/20 00:36:10;;;;;;;8.05;5.22;;;;;;;4.25;75.65;99629.38;3141987;28;20514;-72
2022/04/20 00:37:42;;;;;;;7.03;4.40;;;;;;;4.28;75.72;99631.88;3145660;28;20091;-74
2022/04/20 00:39:14;;;;;;;8.63;4.45;;;;;;;4.21;75.58;99626.00;3145987;28;20076;-73
2022/04/20 00:40:49;;;;;;;10.20;4.68;;;;;;;4.26;75.40;99639.66;3145822;28;20052;-74
2022/04/20 00:42:23;;;;;;;7.15;4.60;;;;;;;4.26;75.70;99637.09;3145547;28;20050;-73
2022/04/20 00:43:55;;;;;;;7.82;4.85;;;;;;;4.25;75.60;99632.78;3145533;28;20440;-73
2022/04/20 00:45:30;;;;;;;7.78;4.88;;;;;;;4.27;75.61;99636.19;3145599;28;20109;-74
2022/04/20 00:47:03;;;;;;;7.68;4.80;;;;;;;4.26;75.58;99628.47;3144221;28;20067;-73
2022/04/20 00:48:36;;;;;;;9.35;4.90;;;;;;;4.08;75.32;99602.25;3146179;28;20056;-73
2022/04/20 00:50:08;;;;;;;5.38;4.15;;;;;;;4.27;75.54;99632.78;3139647;28;20139;-74
2022/04/20 00:51:51;;;;;;;7.45;5.15;;;;;;;4.26;75.55;99626.78;3138706;28;20103;-74
2022/04/20 00:53:23;;;;;;;7.68;4.82;;;;;;;4.26;75.51;99626.78;3145385;28;20059;-73
2022/04/20 00:54:54;;;;;;;6.75;4.32;;;;;;;4.27;75.39;99620.72;3145823;28;20044;-73
2022/04/20 00:56:28;;;;;;;7.57;3.90;;;;;;;4.27;75.50;99625.88;3141813;28;20059;-73
2022/04/20 00:58:00;;;;;;;7.85;4.07;;;;;;;4.28;75.34;99629.28;3127190;28;20049;-73
2022/04/20 00:59:33;;;;;;;7.13;4.25;;;;;;;4.16;75.32;99611.53;3141203;28;20049;-74
2022/04/20 01:01:05;;;;;;;11.65;5.15;;;;;;;4.25;75.46;99627.63;3141404;28;21415;-73
2022/04/20 01:02:37;;;;;;;5.68;3.50;;;;;;;4.21;75.43;99622.59;3145675;28;20126;-73
2022/04/20 01:04:09;;;;;;;7.70;4.30;;;;;;;4.19;75.63;99627.78;3145414;28;20053;-74
2022/04/20 01:05:41;;;;;;;10.13;4.35;;;;;;;4.17;75.64;99629.56;3145713;28;20053;-74
2022/04/20 01:07:14;;;;;;;8.18;4.00;;;;;;;4.18;75.59;99631.25;3145236;28;20049;-72
2022/04/20 01:08:45;;;;;;;7.53;4.35;;;;;;;4.13;75.64;99616.75;3145543;28;20052;-72
2022/04/20 01:10:17;;;;;;;7.65;4.72;;;;;;;4.13;75.71;99633.06;3145164;28;20418;-74
2022/04/20 01:11:52;;;;;;;7.25;4.70;;;;;;;4.10;75.96;99627.97;3145047;28;20559;-73
2022/04/20 01:13:24;;;;;;;6.78;4.55;;;;;;;4.01;75.91;99618.72;3145176;28;20090;-72
2022/04/20 01:14:56;;;;;;;8.55;4.75;;;;;;;4.09;75.84;99627.13;3145649;28;20052;-73
2022/04/20 01:16:28;;;;;;;7.15;4.63;;;;;;;4.12;75.56;99631.38;3145469;28;20059;-72
2022/04/20 01:18:00;;;;;;;6.55;4.20;;;;;;;4.09;75.83;99621.13;3145088;28;20062;-73
2022/04/20 01:19:33;;;;;;;6.63;4.28;;;;;;;4.12;75.61;99625.38;3144216;28;20048;-73
2022/04/20 01:21:07;;;;;;;8.65;4.72;;;;;;;4.07;75.76;99630.63;3143935;28;20079;-72
2022/04/20 01:22:37;;;;;;;6.07;3.50;;;;;;;3.98;76.15;99623.94;3145426;28;20057;-72
2022/04/20 01:24:09;;;;;;;7.97;4.18;;;;;;;3.93;76.23;99625.75;3145181;28;20067;-73
2022/04/20 01:25:41;;;;;;;9.55;4.90;;;;;;;3.76;76.37;99610.66;3145197;28;20508;-73
2022/04/20 01:27:13;;;;;;;9.68;4.65;;;;;;;3.84;76.42;99619.06;3145379;28;20106;-74
2022/04/20 01:28:46;;;;;;;9.23;4.35;;;;;;;3.85;76.35;99615.63;3145631;28;20056;-74
2022/04/20 01:30:18;;;;;;;10.18;4.38;;;;;;;3.86;76.35;99616.47;3145284;28;20048;-73
2022/04/20 01:31:50;;;;;;;8.05;4.97;;;;;;;3.86;76.43;99617.31;3144888;28;20051;-72
2022/04/20 01:33:22;;;;;;;6.20;4.22;;;;;;;3.84;76.31;99606.16;3145163;28;20094;-72
2022/04/20 01:34:53;;;;;;;10.43;5.63;;;;;;;3.90;76.31;99602.63;3145029;28;20044;-74
2022/04/20 01:36:26;;;;;;;8.25;4.88;;;;;;;3.94;76.38;99606.84;3145072;28;20105;-74
2022/04/20 01:37:58;;;;;;;6.45;4.10;;;;;;;3.94;76.16;99604.28;3138478;28;20849;-74
2022/04/20 01:39:30;;;;;;;6.57;4.50;;;;;;;3.93;76.18;99599.97;3132649;28;20048;-73
2022/04/20 01:41:02;;;;;;;8.00;4.68;;;;;;;3.96;75.97;99602.50;3134918;28;20106;-74
2022/04/20 01:42:34;;;;;;;7.03;4.18;;;;;;;3.97;75.86;99605.94;3137787;28;20362;-74
2022/04/20 01:44:06;;;;;;;7.50;4.38;;;;;;;3.97;76.05;99614.50;3140487;28;20086;-73
2022/04/20 01:45:38;;;;;;;6.28;4.43;;;;;;;3.98;75.89;99615.34;3139064;28;20106;-74
2022/04/20 01:47:10;;;;;;;7.15;4.65;;;;;;;3.99;76.03;99611.88;3144393;28;20053;-74
2022/04/20 01:48:42;;;;;;;7.55;4.45;;;;;;;3.96;76.09;99609.38;3144873;28;20056;-74
2022/04/20 01:50:14;;;;;;;8.20;5.05;;;;;;;3.96;76.09;99611.94;3144904;28;20433;-73
2022/04/20 01:51:55;;;;;;;8.57;4.78;;;;;;;3.97;76.14;99611.94;3144683;28;20048;-74
2022/04/20 01:53:27;;;;;;;8.68;4.57;;;;;;;3.94;76.10;99604.28;3139168;28;20110;-74
2022/04/20 01:54:59;;;;;;;9.15;5.07;;;;;;;3.86;76.30;99603.59;3135473;28;20057;-73
2022/04/20 01:56:31;;;;;;;8.65;4.93;;;;;;;3.93;76.17;99612.88;3136671;28;20056;-74
2022/04/20 01:58:02;;;;;;;10.63;4.97;;;;;;;3.95;76.19;99615.41;3141350;28;20049;-74
2022/04/20 01:59:34;;;;;;;9.27;5.38;;;;;;;3.90;76.19;99609.50;3145116;28;20504;-74
2022/04/20 02:02:52;;;;;;;8.60;5.53;;;;;;;3.93;76.18;99606.88;3141226;28;20438;-73
2022/04/20 02:04:23;;;;;;;9.77;5.60;;;;;;;3.94;76.33;99608.59;3145201;28;20504;-74
2022/04/20 02:05:55;;;;;;;9.50;5.35;;;;;;;3.92;76.29;99602.59;3144542;28;20052;-74
2022/04/20 02:07:28;;;;;;;8.25;5.15;;;;;;;3.95;76.17;99599.97;3144891;28;20048;-74
2022/04/20 02:09:00;;;;;;;11.05;5.85;;;;;;;3.92;76.26;99594.88;3141405;28;20048;-74
2022/04/20 02:10:32;;;;;;;11.07;5.97;;;;;;;3.97;76.18;99605.94;3144628;28;20045;-73
2022/04/20 02:12:05;;;;;;;10.38;6.25;;;;;;;3.98;76.23;99603.31;3138355;28;20509;-74
2022/04/20 02:13:37;;;;;;;10.60;5.55;;;;;;;3.96;76.34;99599.06;3144875;28;20049;-74
2022/04/20 02:15:10;;;;;;;10.00;5.93;;;;;;;3.92;76.49;99602.59;3144584;28;20060;-72
2022/04/20 02:16:40;;;;;;;12.70;5.93;;;;;;;3.84;76.82;99606.16;3145387;28;20151;-75
2022/04/20 02:18:12;;;;;;;12.45;6.95;;;;;;;3.77;76.87;99608.94;3145078;28;20080;-73
2022/04/20 02:19:44;;;;;;;15.63;6.65;;;;;;;3.68;77.01;99596.25;3144931;28;20462;-73
2022/04/20 02:21:16;;;;;;;13.95;6.80;;;;;;;3.70;77.32;99602.19;3144951;28;20509;-73
2022/04/20 02:22:49;;;;;;;11.70;6.90;;;;;;;3.65;77.62;99608.28;3144848;28;20090;-73
2022/04/20 02:24:21;;;;;;;12.43;7.32;;;;;;;3.61;77.57;99606.66;3145225;28;20049;-74
2022/04/20 02:25:53;;;;;;;12.02;7.38;;;;;;;3.60;77.71;99612.69;3144882;28;20053;-73
2022/04/20 02:27:25;;;;;;;14.48;6.70;;;;;;;3.58;77.69;99611.00;3144680;28;20056;-72
2022/04/20 02:28:56;;;;;;;11.70;6.72;;;;;;;3.57;77.68;99612.72;3144640;28;20048;-73
2022/04/20 02:30:28;;;;;;;15.75;6.97;;;;;;;3.61;77.43;99614.41;3144540;28;20107;-74
2022/04/20 02:31:59;;;;;;;17.00;7.75;;;;;;;3.60;77.74;99622.13;3144759;28;20128;-72
2022/04/20 02:33:31;;;;;;;17.73;8.73;;;;;;;3.61;77.57;99627.25;3144818;28;20100;-73
2022/04/20 02:35:03;;;;;;;16.90;9.70;;;;;;;3.56;77.68;99616.19;3144700;28;20044;-73
2022/04/20 02:36:35;;;;;;;17.98;10.48;;;;;;;3.63;77.41;99622.06;3144853;28;20052;-72
2022/04/20 02:38:10;;;;;;;20.85;11.20;;;;;;;3.54;77.71;99611.94;3144887;28;20044;-73
2022/04/20 02:39:43;;;;;;;23.67;11.25;;;;;;;3.61;77.55;99618.69;3141258;28;20572;-73
2022/04/20 02:41:15;;;;;;;20.83;10.60;;;;;;;3.61;77.62;99610.97;3143103;28;20049;-73
2022/04/20 02:42:47;;;;;;;19.30;10.32;;;;;;;3.62;77.59;99618.66;3144540;28;20046;-74
2022/04/20 02:44:19;;;;;;;20.52;10.88;;;;;;;3.60;77.59;99619.56;3144573;28;20114;-73
2022/04/20 02:45:51;;;;;;;17.92;10.15;;;;;;;3.54;77.46;99617.09;3144614;28;20053;-73
2022/04/20 02:47:22;;;;;;;19.33;10.75;;;;;;;3.61;77.48;99621.28;3144952;28;20055;-73
2022/04/20 02:48:54;;;;;;;16.92;10.07;;;;;;;3.62;77.51;99623.81;3144417;28;20513;-73
2022/04/20 02:50:27;;;;;;;17.08;10.23;;;;;;;3.65;77.42;99623.75;3144520;28;20590;-72
2022/04/20 02:51:59;;;;;;;21.48;10.50;;;;;;;3.63;77.38;99622.06;3142541;28;20049;-72
2022/04/20 02:53:32;;;;;;;17.35;10.13;;;;;;;3.68;77.24;99630.56;3136321;28;20056;-73
2022/04/20 02:55:05;;;;;;;19.75;9.93;;;;;;;3.64;77.40;99627.22;3136779;28;20549;-73
2022/04/20 02:56:37;;;;;;;20.10;11.68;;;;;;;3.65;77.32;99636.63;3143873;28;20059;-72
2022/04/20 02:58:09;;;;;;;22.00;11.15;;;;;;;3.60;77.21;99627.28;3144448;28;20101;-74
2022/04/20 02:59:41;;;;;;;21.50;11.60;;;;;;;3.60;77.25;99638.44;3144909;28;20048;-73
2022/04/20 03:01:13;;;;;;;18.60;11.05;;;;;;;3.58;77.19;99632.47;3144709;28;20121;-73
2022/04/20 03:02:44;;;;;;;22.55;11.43;;;;;;;3.58;77.39;99634.19;3143954;28;20515;-74
2022/04/20 03:04:16;;;;;;;19.00;11.10;;;;;;;3.58;77.24;99621.31;3144557;28;20587;-73
2022/04/20 03:05:48;;;;;;;22.70;11.90;;;;;;;3.59;77.29;99639.31;3144602;28;20052;-73
2022/04/20 03:07:20;;;;;;;22.27;11.88;;;;;;;3.55;77.47;99641.97;3144845;28;20088;-73
2022/04/20 03:08:53;;;;;;;22.75;11.38;;;;;;;3.51;77.30;99636.03;3144652;28;20517;-74
2022/04/20 03:10:25;;;;;;;;;;;;;;;3.47;77.48;99638.72;3146423;28;20048;-72
2022/04/20 03:11:57;;;;;;;26.30;12.32;;;;;;;3.46;77.49;99644.72;3146924;28;19924;-73
2022/04/20 03:13:28;;;;;;;23.15;12.13;;;;;;;3.47;77.36;99642.13;3140412;28;20060;-73
2022/04/20 03:15:00;;;;;;;21.55;11.48;;;;;;;3.41;77.57;99634.53;3137370;28;20055;-73
2022/04/20 03:16:32;;;;;;;25.88;11.63;;;;;;;3.48;77.58;99642.97;3144972;28;20113;-73
2022/04/20 03:18:04;;;;;;;21.38;11.43;;;;;;;3.47;77.56;99639.56;3143959;28;20419;-73
2022/04/20 03:19:36;;;;;;;21.50;11.93;;;;;;;3.44;77.60;99633.63;3140141;28;20048;-73
2022/04/20 03:21:08;;;;;;;26.83;11.68;;;;;;;3.43;77.52;99637.88;3145908;28;20045;-73
2022/04/20 03:22:40;;;;;;;23.75;12.35;;;;;;;3.38;77.71;99638.00;3146189;28;20048;-73
2022/04/20 03:24:13;;;;;;;22.90;11.48;;;;;;;3.37;77.81;99640.59;3146063;28;20101;-73
2022/04/20 03:25:45;;;;;;;28.05;13.38;;;;;;;3.30;77.83;99637.28;3142418;28;20122;-73
2022/04/20 03:27:17;;;;;;;26.23;13.13;;;;;;;3.29;78.03;99645.03;3142157;28;20048;-73
2022/04/20 03:28:49;;;;;;;26.77;13.73;;;;;;;3.22;78.13;99631.41;3147092;28;20053;-73
2022/04/20 03:30:21;;;;;;;25.63;12.88;;;;;;;3.24;78.06;99645.13;3141621;28;20057;-73
2022/04/20 03:31:53;;;;;;;27.63;14.43;;;;;;;3.21;78.12;99636.59;3146221;28;20094;-74
2022/04/20 03:33:25;;;;;;;32.40;13.32;;;;;;;3.23;78.17;99646.00;3146776;28;20491;-73
2022/04/20 03:34:58;;;;;;;31.63;16.40;;;;;;;3.15;78.26;99651.25;3146428;28;20127;-73
2022/04/20 03:36:31;;;;;;;39.85;18.05;;;;;;;3.11;78.43;99646.22;3146653;28;20057;-73
2022/04/20 03:38:03;;;;;;;49.13;18.80;;;;;;;3.10;78.63;99644.50;3146055;28;20064;-73
2022/04/20 03:39:37;;;;;;;47.40;20.20;;;;;;;3.03;78.70;99645.50;3139218;28;20052;-73
2022/04/20 03:41:09;;;;;;;47.85;20.33;;;;;;;3.07;78.73;99657.41;3146490;28;20041;-73
2022/04/20 03:42:42;;;;;;;47.30;20.80;;;;;;;3.11;78.56;99659.09;3145155;28;20518;-74
2022/04/20 03:44:13;;;;;;;53.38;20.48;;;;;;;3.13;78.73;99657.31;3146651;28;20040;-73
2022/04/20 03:45:45;;;;;;;53.00;20.75;;;;;;;3.17;78.62;99666.69;3140980;28;20448;-73
2022/04/20 03:47:17;;;;;;;47.47;21.02;;;;;;;3.19;78.79;99659.78;3138614;28;20415;-73
2022/04/20 03:48:50;;;;;;;46.28;21.20;;;;;;;3.22;78.61;99658.88;3145961;28;20111;-74
2022/04/20 03:50:22;;;;;;;55.90;22.73;;;;;;;3.27;78.64;99660.50;3146529;28;20086;-73
2022/04/20 03:51:53;;;;;;;48.45;21.63;;;;;;;3.29;78.36;99663.06;3145864;28;20052;-73
2022/04/20 03:53:25;;;;;;;52.10;22.48;;;;;;;3.32;78.22;99661.28;3146194;28;20052;-73
2022/04/20 03:54:59;;;;;;;54.50;23.48;;;;;;;3.32;78.31;99656.13;3146728;28;20056;-73
2022/04/20 03:57:03;;;;;;;;;;;;;;;3.36;78.19;99656.91;3147157;28;20068;-73
2022/04/20 03:58:22;;;;;;;44.85;21.42;;;;;;;3.33;78.18;99655.25;3146267;28;19921;-73
2022/04/20 03:59:53;;;;;;;48.97;21.67;;;;;;;3.34;78.21;99658.66;3146152;28;20052;-73
2022/04/20 04:01:25;;;;;;;42.08;20.55;;;;;;;3.35;78.08;99662.94;3135647;28;20106;-73
2022/04/20 04:02:57;;;;;;;46.88;21.17;;;;;;;3.33;78.34;99665.53;3141828;28;20517;-73
2022/04/20 04:04:29;;;;;;;48.63;20.52;;;;;;;3.33;78.40;99675.81;3138393;28;20103;-73
2022/04/20 04:06:00;;;;;;;42.50;20.60;;;;;;;3.28;78.22;99661.34;3145827;28;20053;-73
2022/04/20 04:07:32;;;;;;;38.00;18.98;;;;;;;3.33;78.45;99664.69;3146391;28;20044;-73
2022/04/20 04:09:04;;;;;;;35.42;19.05;;;;;;;3.33;78.46;99662.97;3146308;28;20080;-73
2022/04/20 04:10:37;;;;;;;36.53;18.42;;;;;;;3.35;78.53;99676.66;3146379;28;20052;-73
2022/04/20 04:12:10;;;;;;;41.53;21.13;;;;;;;3.37;78.40;99662.06;3144619;28;20126;-74
2022/04/20 04:13:42;;;;;;;49.90;23.77;;;;;;;3.37;78.27;99656.91;3134351;28;20059;-74
2022/04/20 04:15:14;;;;;;;48.30;23.70;;;;;;;3.44;78.38;99667.09;3144207;28;20053;-73
2022/04/20 04:16:46;;;;;;;43.03;22.42;;;;;;;3.48;78.26;99664.41;3145692;28;20437;-73
2022/04/20 04:18:17;;;;;;;37.95;20.02;;;;;;;3.51;78.26;99660.94;3145943;28;20048;-73
2022/04/20 04:19:49;;;;;;;37.45;20.95;;;;;;;3.49;77.91;99666.13;3145903;28;20106;-74
2022/04/20 04:21:21;;;;;;;42.72;21.33;;;;;;;3.55;78.29;99678.00;3144592;28;20071;-73
2022/04/20 04:22:53;;;;;;;41.40;20.33;;;;;;;3.57;78.02;99671.13;3136103;28;20100;-73
2022/04/20 04:24:37;;;;;;;44.45;20.15;;;;;;;3.60;78.19;99673.63;3145171;28;20048;-73
2022/04/20 04:26:10;;;;;;;;;;;;;;;3.62;78.04;99669.31;3135648;28;20056;-73
2022/04/20 04:27:42;;;;;;;37.33;18.70;;;;;;;3.62;77.84;99671.88;3139771;28;19999;-73
2022/04/20 04:29:13;;;;;;;43.95;21.35;;;;;;;3.64;77.96;99676.13;3145640;28;20121;-73
2022/04/20 04:30:45;;;;;;;42.75;20.40;;;;;;;3.54;77.81;99659.13;3146018;28;20135;-74
2022/04/20 04:32:17;;;;;;;40.05;20.98;;;;;;;3.59;77.81;99667.63;3145881;28;20120;-73
2022/04/20 04:33:48;;;;;;;41.28;21.25;;;;;;;3.60;78.10;99677.03;3145760;28;20102;-73
2022/04/20 04:35:20;;;;;;;39.00;20.92;;;;;;;3.60;78.01;99682.19;3146125;28;20083;-73
2022/04/20 04:36:54;;;;;;;42.20;21.67;;;;;;;3.58;78.14;99680.53;3145902;28;20110;-73
2022/04/20 04:38:25;;;;;;;39.17;21.65;;;;;;;3.59;78.33;99679.66;3145805;28;20056;-73
2022/04/20 04:39:57;;;;;;;40.83;21.27;;;;;;;3.61;78.16;99680.50;3143961;28;20433;-73
2022/04/20 04:41:31;;;;;;;39.85;22.67;;;;;;;3.64;78.33;99681.28;3145684;28;20476;-73
2022/04/20 04:43:02;;;;;;;44.35;21.73;;;;;;;3.65;78.54;99676.97;3145487;28;20453;-74
2022/04/20 04:44:34;;;;;;;40.58;21.42;;;;;;;3.67;78.52;99674.34;3146101;28;20044;-74
2022/04/20 04:49:45;;;;;;;37.20;20.25;;;;;;;3.64;78.51;99670.13;3137036;28;20045;-74
2022/04/20 04:51:17;;;;;;;37.70;19.60;;;;;;;3.60;78.72;99658.19;3133225;28;20049;-74
2022/04/20 04:52:49;;;;;;;35.53;19.73;;;;;;;3.69;78.62;99673.44;3143467;28;20044;-74
2022/04/20 04:54:19;;;;;;;35.58;19.98;;;;;;;3.70;78.61;99674.28;3144972;28;20057;-74
2022/04/20 04:55:51;;;;;;;37.25;19.50;;;;;;;3.75;78.93;99678.47;3145530;28;20139;-74
2022/04/20 04:57:24;;;;;;;34.95;18.85;;;;;;;3.76;78.90;99675.06;3145167;28;20433;-74
2022/04/20 04:58:56;;;;;;;31.33;17.35;;;;;;;3.78;78.72;99675.00;3145875;28;20198;-74
2022/04/20 05:00:28;;;;;;;36.78;17.08;;;;;;;3.80;78.70;99678.41;3145245;28;20483;-74
2022/04/20 05:02:01;;;;;;;31.10;16.58;;;;;;;3.86;78.51;99679.13;3145162;28;20056;-74
2022/04/20 05:03:33;;;;;;;29.33;16.90;;;;;;;3.92;78.71;99680.75;3145088;28;20053;-74
2022/04/20 05:05:06;;;;;;;31.73;15.65;;;;;;;3.96;78.53;99678.94;3145894;28;20102;-74
2022/04/20 05:06:38;;;;;;;30.65;15.30;;;;;;;3.98;78.48;99670.31;3145586;28;20083;-74
2022/04/20 05:08:10;;;;;;;30.63;15.65;;;;;;;4.04;78.41;99679.66;3145400;28;21142;-74
2022/04/20 05:09:44;;;;;;;29.17;15.48;;;;;;;4.07;78.32;99671.84;3141833;28;20108;-74
2022/04/20 05:11:15;;;;;;;27.00;15.35;;;;;;;4.11;78.11;99668.31;3138871;28;20531;-74
2022/04/20 05:12:48;;;;;;;27.55;13.98;;;;;;;4.13;78.18;99676.03;3144343;28;20063;-74
2022/04/20 05:14:20;;;;;;;24.50;13.32;;;;;;;4.10;78.07;99664.06;3145415;28;20094;-74
2022/04/20 05:15:52;;;;;;;25.35;12.50;;;;;;;4.10;78.10;99664.91;3145172;28;20433;-74
2022/04/20 05:17:24;;;;;;;29.70;12.63;;;;;;;4.00;77.86;99668.56;3145406;28;20052;-74
2022/04/20 05:18:56;;;;;;;25.98;12.38;;;;;;;4.05;77.94;99671.03;3145108;28;20079;-74
2022/04/20 05:20:28;;;;;;;19.73;10.35;;;;;;;4.10;77.76;99664.06;3145486;28;20060;-74
2022/04/20 05:22:00;;;;;;;25.90;11.80;;;;;;;4.08;77.57;99661.53;3138642;28;20786;-74
2022/04/20 05:23:32;;;;;;;24.52;11.85;;;;;;;4.18;77.51;99671.63;3144952;28;20053;-74
2022/04/20 05:25:04;;;;;;;20.25;11.05;;;;;;;4.26;77.59;99669.72;3145324;28;20436;-74
2022/04/20 05:26:36;;;;;;;26.25;11.93;;;;;;;4.33;77.45;99666.16;3145226;28;20051;-74
2022/04/20 05:28:09;;;;;;;28.67;12.80;;;;;;;4.38;77.30;99669.47;3145245;28;20429;-74
2022/04/20 05:29:41;;;;;;;26.58;12.57;;;;;;;4.47;77.26;99674.44;3145261;28;20121;-74
2022/04/20 05:31:13;;;;;;;27.08;13.23;;;;;;;4.52;77.12;99677.72;3144626;28;20049;-74
2022/04/20 05:32:45;;;;;;;24.90;12.48;;;;;;;4.55;76.88;99669.97;3145443;28;20402;-74
2022/04/20 05:34:16;;;;;;;21.70;11.55;;;;;;;4.63;76.75;99669.75;3138868;28;20619;-74
2022/04/20 05:35:48;;;;;;;26.27;13.52;;;;;;;4.79;76.86;99670.25;3141751;28;20048;-74
2022/04/20 05:42:48;;;;;;;29.58;12.88;;;;;;;5.51;75.33;99642.63;3141309;28;20164;-74
2022/04/20 05:44:21;;;;;;;21.95;12.23;;;;;;;5.72;74.75;99654.09;3138808;28;20561;-74
2022/04/20 05:45:53;;;;;;;22.52;13.00;;;;;;;5.76;73.95;99636.78;3145256;28;20048;-74
2022/04/20 05:47:25;;;;;;;22.75;12.45;;;;;;;5.94;73.58;99649.19;3142475;28;20048;-74
2022/04/20 05:48:57;;;;;;;22.80;13.27;;;;;;;6.01;73.25;99632.63;3145069;28;20071;-75
2022/04/20 05:50:29;;;;;;;26.27;13.05;;;;;;;6.17;72.95;99639.94;3144031;28;20052;-74
2022/04/20 05:52:01;;;;;;;24.17;10.55;;;;;;;6.29;72.75;99647.31;3144730;28;20115;-74
2022/04/20 05:53:33;;;;;;;20.25;11.65;;;;;;;6.23;72.17;99629.41;3144591;28;20513;-74
2022/04/20 05:55:06;;;;;;;22.65;12.48;;;;;;;6.36;72.03;99649.69;3145177;28;20064;-75
2022/04/20 05:56:37;;;;;;;24.25;13.23;;;;;;;6.43;71.80;99657.25;3145204;28;20048;-74
2022/04/20 05:58:09;;;;;;;20.63;11.70;;;;;;;6.45;71.71;99661.50;3144638;28;20071;-75
2022/04/20 05:59:42;;;;;;;19.65;11.70;;;;;;;6.45;71.58;99656.31;3144651;28;20056;-74
2022/04/20 06:01:16;;;;;;;18.85;11.50;;;;;;;6.39;71.04;99666.88;3144962;28;20044;-74
2022/04/20 06:02:48;;;;;;;27.70;11.73;;;;;;;6.40;71.20;99658.19;3145286;28;20048;-75
2022/04/20 06:04:19;;;;;;;22.23;11.90;;;;;;;6.42;71.23;99653.84;3142160;28;20102;-74
2022/04/20 06:05:51;;;;;;;20.48;11.23;;;;;;;6.47;71.13;99645.91;3132154;28;20087;-74
2022/04/20 06:07:23;;;;;;;25.05;12.40;;;;;;;6.42;70.67;99645.22;3143068;28;20106;-75
2022/04/20 06:08:55;;;;;;;20.75;12.52;;;;;;;6.44;70.69;99644.25;3132676;28;20064;-74
2022/04/20 06:10:29;;;;;;;18.65;12.07;;;;;;;6.45;70.76;99635.63;3137845;28;20118;-74
2022/04/20 06:12:01;;;;;;;21.40;12.07;;;;;;;6.28;70.95;99602.53;3144901;28;20493;-74
2022/04/20 06:13:33;;;;;;;22.92;11.02;;;;;;;6.55;70.71;99625.84;3142901;28;20538;-74
2022/04/20 06:15:07;;;;;;;18.52;11.73;;;;;;;6.62;70.91;99627.31;3143737;28;20051;-74
2022/04/20 06:16:39;;;;;;;19.08;11.90;;;;;;;6.60;70.28;99611.88;3144877;28;20122;-74
2022/04/20 06:18:11;;;;;;;23.20;11.65;;;;;;;6.66;70.11;99613.41;3145135;28;20158;-74
2022/04/20 06:19:43;;;;;;;21.35;11.98;;;;;;;6.75;70.23;99612.28;3144411;28;20071;-74
2022/04/20 06:21:15;;;;;;;26.65;12.05;;;;;;;6.76;70.15;99601.84;3139862;28;20525;-74
2022/04/20 06:22:46;;;;;;;21.50;13.02;;;;;;;6.88;70.09;99607.53;3145366;28;20058;-74
2022/04/20 06:24:18;;;;;;;19.15;11.65;;;;;;;6.97;69.90;99602.88;3142168;28;20130;-74
2022/04/20 06:25:53;;;;;;;20.35;11.02;;;;;;;7.04;69.68;99606.13;3143635;28;20064;-74
2022/04/20 06:27:29;;;;;;;21.10;11.18;;;;;;;7.10;69.20;99599.88;3142549;28;20751;-74
2022/04/20 06:29:01;;;;;;;20.60;10.82;;;;;;;7.07;68.87;99585.31;3144915;28;20087;-75
2022/04/20 06:30:34;;;;;;;18.65;10.40;;;;;;;7.10;68.67;99586.94;3145282;28;20102;-74
2022/04/20 06:32:07;;;;;;;18.65;10.93;;;;;;;7.11;68.49;99594.66;3141503;28;20513;-74
2022/04/20 06:33:39;;;;;;;18.67;10.57;;;;;;;7.09;68.35;99591.25;3145063;28;20098;-74
2022/04/20 06:35:11;;;;;;;20.50;10.50;;;;;;;7.11;68.11;99596.41;3145007;28;20196;-74
2022/04/20 06:36:43;;;;;;;22.30;10.90;;;;;;;7.13;68.35;99598.06;3144858;28;20045;-75
2022/04/20 06:38:15;;;;;;;16.58;9.30;;;;;;;7.20;68.21;99598.69;3143323;28;20110;-74
2022/04/20 06:39:49;;;;;;;20.45;9.98;;;;;;;7.25;68.22;99596.78;3144839;28;20051;-74
2022/04/20 06:41:21;;;;;;;19.73;9.77;;;;;;;7.32;68.01;99598.25;3143937;28;20103;-74
2022/04/20 06:42:52;;;;;;;19.27;10.13;;;;;;;7.19;67.66;99560.75;3145279;28;20075;-74
2022/04/20 06:44:24;;;;;;;15.10;9.35;;;;;;;7.41;67.38;99597.91;3144572;28;20130;-74
2022/04/20 06:45:57;;;;;;;18.23;9.85;;;;;;;7.42;67.03;99598.75;3142499;28;20044;-74
2022/04/20 06:47:32;;;;;;;20.35;9.98;;;;;;;7.41;67.19;99603.09;3147338;28;20060;-74
2022/04/20 06:49:04;;;;;;;17.95;11.80;;;;;;;7.47;67.38;99612.41;3146621;28;20390;-74
2022/04/20 06:50:36;;;;;;;24.75;11.45;;;;;;;7.52;67.30;99610.50;3146976;28;20505;-74
2022/04/20 06:59:26;;;;;;;32.95;11.45;;;;;;;7.59;66.85;99621.50;3145614;28;20048;-73
2022/04/20 07:01:00;;;;;;;22.45;11.00;;;;;;;7.66;66.75;99621.22;3146769;28;20048;-73
2022/04/20 07:02:31;;;;;;;33.65;10.60;;;;;;;7.72;66.88;99618.41;3144416;28;20052;-73
2022/04/20 07:04:03;;;;;;;19.73;10.85;;;;;;;7.73;66.42;99625.28;3147467;28;20622;-74
2022/04/20 07:05:36;;;;;;;23.27;9.20;;;;;;;7.75;66.20;99620.88;3145833;28;20048;-73
2022/04/20 07:07:08;;;;;;;17.67;9.60;;;;;;;7.76;66.28;99621.72;3147080;28;20575;-75
2022/04/20 07:08:40;;;;;;;16.77;9.95;;;;;;;7.77;66.09;99626.00;3145335;28;20052;-73
2022/04/20 07:10:12;;;;;;;21.55;10.73;;;;;;;7.78;66.05;99626.84;3146286;28;20060;-74
2022/04/20 07:11:44;;;;;;;20.83;9.65;;;;;;;7.81;66.00;99629.31;3144304;28;20414;-73
2022/04/20 07:13:16;;;;;;;23.23;10.82;;;;;;;7.79;65.90;99626.81;3147098;28;20502;-73
2022/04/20 07:14:48;;;;;;;21.88;10.40;;;;;;;7.75;66.15;99607.09;3146464;28;20174;-73
2022/04/20 07:16:21;;;;;;;23.55;10.30;;;;;;;7.87;65.95;99622.19;3141857;28;20110;-73
2022/04/20 07:17:53;;;;;;;20.88;9.90;;;;;;;7.83;65.70;99619.75;3147145;28;20048;-73
2022/04/20 07:19:25;;;;;;;18.52;10.15;;;;;;;7.83;65.59;99619.75;3145744;28;20041;-73
2022/04/20 07:20:59;;;;;;;20.50;9.73;;;;;;;7.86;65.76;99617.88;3143452;28;20061;-73
2022/04/20 07:22:31;;;;;;;35.50;14.02;;;;;;;7.91;65.83;99615.97;3142551;28;20098;-73
2022/04/20 07:24:02;;;;;;;20.30;10.73;;;;;;;7.93;65.68;99621.13;3146910;28;20106;-72
2022/04/20 07:25:36;;;;;;;21.98;10.38;;;;;;;7.93;65.53;99611.59;3144377;28;20060;-73
2022/04/20 07:27:08;;;;;;;26.92;11.32;;;;;;;7.90;65.49;99616.88;3147105;28;20102;-73
2022/04/20 07:28:39;;;;;;;30.70;11.45;;;;;;;7.89;65.43;99622.13;3143709;28;20044;-73
2022/04/20 07:30:12;;;;;;;29.13;11.02;;;;;;;7.87;65.60;99617.00;3146629;28;20407;-73
2022/04/20 07:31:46;;;;;;;30.17;10.55;;;;;;;7.88;65.62;99626.47;3146777;28;20122;-73